Time;durP1;ratioP1;P1;durP2;ratioP2;P2;SDS_P1;SDS_P2;PMS_P1;PMS_P2;Temp;Humidity;BMP_temperature;BMP_pressure;BME280_temperature;BME280_humidity;BME280_pressure;Samples;Min_cycle;Max_cycle;Signal;HPM_P1;HPM_P2
2024/04/06 00:01:30;;;;;;;4.60;4.20;;;13.70;96.30;;;;;;6177818;28;20947;-57
2024/04/06 00:04:43;;;;;;;7.60;4.47;;;13.60;96.20;;;;;;6181160;28;20778;-57
2024/04/06 00:07:49;;;;;;;4.70;4.27;;;13.60;96.20;;;;;;6181195;28;20467;-57
2024/04/06 00:14:19;;;;;;;5.43;4.17;;;13.60;96.20;;;;;;6202665;28;20472;-57
2024/04/06 00:17:21;;;;;;;6.17;4.17;;;13.60;96.10;;;;;;6205315;28;20448;-56
2024/04/06 00:20:36;;;;;;;4.60;3.60;;;13.60;96.00;;;;;;6204509;28;20489;-57
2024/04/06 00:23:51;;;;;;;5.00;4.37;;;13.60;96.00;;;;;;6203015;28;20494;-56
2024/04/06 00:26:56;;;;;;;4.43;4.03;;;13.50;96.10;;;;;;6205628;28;20452;-57
2024/04/06 00:29:59;;;;;;;7.60;4.17;;;13.50;96.00;;;;;;6205522;28;20452;-56
2024/04/06 00:33:05;;;;;;;5.17;4.77;;;13.50;96.00;;;;;;6204378;28;20541;-56
2024/04/06 00:36:07;;;;;;;5.23;4.23;;;13.50;96.10;;;;;;6204889;28;20545;-57
2024/04/06 00:39:21;;;;;;;6.47;4.30;;;13.50;96.30;;;;;;6204381;28;20555;-57
2024/04/06 00:42:25;;;;;;;6.30;5.17;;;13.40;96.50;;;;;;6181546;28;20958;-57
2024/04/06 00:45:29;;;;;;;5.03;4.63;;;13.40;96.50;;;;;;6180389;28;20836;-57
2024/04/06 00:48:42;;;;;;;6.63;4.70;;;13.30;96.30;;;;;;6179915;28;20482;-57
2024/04/06 00:51:44;;;;;;;4.33;3.80;;;13.30;96.30;;;;;;6180059;28;20584;-57
2024/04/06 00:54:54;;;;;;;5.00;4.50;;;13.30;96.20;;;;;;6180632;28;20445;-56
2024/04/06 00:57:58;;;;;;;5.33;4.80;;;13.30;96.60;;;;;;6180215;28;20985;-57
2024/04/06 01:01:04;;;;;;;5.97;4.40;;;13.30;96.30;;;;;;6180205;28;21042;-57
2024/04/06 01:04:07;;;;;;;4.60;4.13;;;13.30;96.20;;;;;;6180676;28;20472;-57
2024/04/06 01:07:13;;;;;;;4.23;3.80;;;13.40;96.20;;;;;;6179873;28;20459;-57
2024/04/06 01:10:20;;;;;;;4.77;4.37;;;13.40;96.10;;;;;;6199732;28;20445;-57
2024/04/06 01:13:25;;;;;;;6.63;4.87;;;13.40;95.90;;;;;;6183025;28;20847;-57
2024/04/06 01:16:31;;;;;;;10.97;5.23;;;13.40;95.80;;;;;;6189478;28;20499;-57
2024/04/06 01:19:37;;;;;;;5.50;4.60;;;13.50;95.80;;;;;;6184282;28;20463;-57
2024/04/06 01:22:38;;;;;;;4.80;4.40;;;13.50;95.70;;;;;;6184001;28;20461;-58
2024/04/06 01:25:56;;;;;;;5.70;4.00;;;13.40;95.70;;;;;;6202212;28;20462;-57
2024/04/06 01:29:02;;;;;;;4.27;3.87;;;13.40;95.70;;;;;;6208315;28;20968;-56
2024/04/06 01:32:06;;;;;;;4.70;4.20;;;13.40;95.70;;;;;;6208159;28;20530;-57
2024/04/06 01:35:11;;;;;;;6.10;5.10;;;13.40;95.70;;;;;;6208170;28;20463;-57
2024/04/06 01:38:15;;;;;;;7.30;5.90;;;13.40;95.70;;;;;;6206273;28;20456;-56
2024/04/06 01:41:33;;;;;;;11.20;7.07;;;13.40;95.80;;;;;;6207735;28;20510;-57
2024/04/06 01:44:39;;;;;;;8.77;5.83;;;13.30;95.80;;;;;;6208115;28;20478;-57
2024/04/06 01:47:50;;;;;;;6.40;5.20;;;13.30;95.80;;;;;;6207790;28;20456;-56
2024/04/06 01:50:54;;;;;;;5.40;4.40;;;13.30;96.00;;;;;;6207613;28;20735;-56
2024/04/06 01:54:00;;;;;;;9.70;6.23;;;13.30;96.10;;;;;;6207465;28;20484;-57
2024/04/06 01:57:06;;;;;;;7.10;5.50;;;13.30;96.30;;;;;;6207476;28;20447;-56
2024/04/06 02:00:11;;;;;;;5.97;4.50;;;13.30;96.30;;;;;;6207115;28;20488;-56
2024/04/06 02:03:15;;;;;;;4.93;4.33;;;13.20;96.50;;;;;;6207298;28;20480;-56
2024/04/06 02:06:20;;;;;;;6.90;5.20;;;13.20;96.50;;;;;;6206678;28;20448;-57
2024/04/06 02:09:23;;;;;;;5.30;4.80;;;13.30;96.60;;;;;;6207372;28;20505;-56
2024/04/06 02:12:29;;;;;;;8.60;5.27;;;13.40;96.50;;;;;;6205822;28;20492;-57
2024/04/06 02:15:33;;;;;;;6.20;4.20;;;13.40;96.40;;;;;;6205514;28;20460;-57
2024/04/06 02:21:53;;;;;;;5.20;4.23;;;13.50;96.10;;;;;;6197861;28;20596;-57
2024/04/06 02:24:54;;;;;;;4.53;4.13;;;13.60;96.10;;;;;;6183270;28;20479;-56
2024/04/06 02:27:58;;;;;;;5.23;4.20;;;13.60;95.80;;;;;;6182907;28;20771;-56
2024/04/06 02:34:19;;;;;;;6.13;4.93;;;13.60;95.70;;;;;;6206807;28;20456;-56
2024/04/06 02:37:22;;;;;;;4.60;4.13;;;13.60;95.50;;;;;;6205940;28;20547;-56
2024/04/06 02:40:27;;;;;;;5.80;5.30;;;13.60;95.30;;;;;;6204763;28;20517;-57
2024/04/06 02:43:34;;;;;;;6.43;5.83;;;13.60;95.10;;;;;;6206341;28;20472;-57
2024/04/06 02:46:36;;;;;;;5.97;5.20;;;13.60;95.50;;;;;;6206553;28;20803;-56
2024/04/06 02:49:41;;;;;;;6.40;5.80;;;13.60;95.70;;;;;;6206951;28;20451;-57
2024/04/06 02:52:44;;;;;;;6.40;5.80;;;13.60;95.70;;;;;;6206733;28;20468;-56
2024/04/06 02:55:51;;;;;;;5.97;5.40;;;13.50;96.00;;;;;;6206738;28;20474;-57
2024/04/06 02:58:58;;;;;;;6.80;6.03;;;13.40;95.90;;;;;;6206776;28;20448;-57
2024/04/06 03:02:09;;;;;;;5.80;5.40;;;13.30;96.00;;;;;;6207672;28;20491;-60
2024/04/06 03:05:13;;;;;;;6.40;5.80;;;13.20;96.10;;;;;;6208276;28;20478;-57
2024/04/06 03:08:19;;;;;;;7.27;5.90;;;13.10;96.80;;;;;;6206149;28;20460;-57
2024/04/06 03:11:33;;;;;;;7.73;5.77;;;13.10;96.90;;;;;;6204296;28;20521;-56
2024/04/06 03:14:38;;;;;;;5.90;5.30;;;13.00;96.90;;;;;;6206034;28;20490;-57
2024/04/06 03:17:44;;;;;;;5.00;4.50;;;12.90;97.00;;;;;;6205556;28;20847;-56
2024/04/06 03:20:50;;;;;;;5.70;5.20;;;12.90;97.30;;;;;;6205668;28;20484;-57
2024/04/06 03:23:54;;;;;;;9.30;5.20;;;12.80;97.20;;;;;;6205870;28;20464;-56
2024/04/06 03:27:05;;;;;;;7.97;5.93;;;12.70;97.50;;;;;;6205631;28;20514;-56
2024/04/06 03:30:10;;;;;;;6.10;5.50;;;12.70;97.90;;;;;;6204915;28;20450;-57
2024/04/06 03:33:14;;;;;;;6.43;5.50;;;12.60;97.90;;;;;;6205415;28;20616;-56
2024/04/06 03:36:18;;;;;;;6.57;5.23;;;12.60;97.90;;;;;;6205388;28;20448;-57
2024/04/06 03:39:21;;;;;;;6.97;5.50;;;12.60;97.80;;;;;;6205480;28;20447;-57
2024/04/06 03:42:34;;;;;;;11.20;5.77;;;12.50;97.90;;;;;;6205489;28;20936;-57
2024/04/06 03:45:54;;;;;;;7.00;6.07;;;12.50;97.80;;;;;;6206591;28;20459;-56
2024/04/06 03:48:56;;;;;;;8.47;6.27;;;12.50;97.70;;;;;;6203319;28;20464;-57
2024/04/06 03:52:03;;;;;;;6.40;5.70;;;12.50;97.70;;;;;;6206045;28;20490;-57
2024/04/06 03:55:06;;;;;;;5.63;5.03;;;12.40;97.70;;;;;;6206806;28;20464;-56
2024/04/06 03:58:12;;;;;;;6.20;5.60;;;12.40;97.80;;;;;;6206447;28;20883;-57
2024/04/06 04:01:27;;;;;;;7.23;6.30;;;12.30;97.80;;;;;;6204981;28;20970;-56
2024/04/06 04:04:40;;;;;;;7.50;6.80;;;12.20;97.70;;;;;;6199905;28;20889;-57
2024/04/06 04:07:43;;;;;;;9.90;6.20;;;12.20;97.90;;;;;;6205558;28;20730;-57
2024/04/06 04:10:50;;;;;;;8.20;6.40;;;12.10;98.20;;;;;;6204565;28;20589;-57
2024/04/06 04:13:54;;;;;;;9.00;8.10;;;12.00;98.30;;;;;;6203339;28;20904;-58
2024/04/06 04:17:11;;;;;;;7.63;6.93;;;12.00;98.60;;;;;;6204598;28;20452;-57
2024/04/06 04:20:24;;;;;;;5.27;4.77;;;11.90;98.80;;;;;;6204584;28;20490;-58
2024/04/06 04:23:27;;;;;;;5.73;5.07;;;11.80;99.00;;;;;;6205258;28;20476;-57
2024/04/06 04:26:39;;;;;;;9.57;6.40;;;11.80;99.00;;;;;;6204415;28;20571;-57
2024/04/06 04:29:45;;;;;;;6.53;5.93;;;11.80;99.00;;;;;;6205843;28;20528;-57
2024/04/06 04:33:01;;;;;;;6.20;5.60;;;11.70;99.10;;;;;;6205094;28;20482;-56
2024/04/06 04:39:28;;;;;;;5.93;5.43;;;11.70;99.50;;;;;;6204129;28;20782;-56
2024/04/06 04:42:32;;;;;;;7.73;5.50;;;11.70;99.60;;;;;;6203744;28;20940;-56
2024/04/06 04:45:38;;;;;;;5.67;5.20;;;11.80;99.80;;;;;;6208530;28;20478;-57
2024/04/06 04:49:06;;;;;;;6.47;5.87;;;11.80;99.90;;;;;;6208941;28;20456;-56
2024/04/06 04:52:18;;;;;;;6.40;5.17;;;11.90;99.90;;;;;;6208508;28;20467;-56
2024/04/06 04:55:31;;;;;;;5.60;5.20;;;12.10;99.90;;;;;;6208289;28;20452;-57
2024/04/06 04:58:32;;;;;;;5.60;5.10;;;12.20;99.90;;;;;;6208517;28;20448;-57
2024/04/06 05:01:45;;;;;;;10.03;5.17;;;12.30;99.90;;;;;;6206495;28;20491;-56
2024/04/06 05:04:49;;;;;;;7.73;5.20;;;12.40;99.60;;;;;;6209074;28;20454;-57
2024/04/06 05:07:58;;;;;;;6.10;5.20;;;12.50;99.30;;;;;;6208742;28;20907;-57
2024/04/06 05:11:04;;;;;;;5.20;4.70;;;12.70;99.00;;;;;;6208873;28;20804;-56
2024/04/06 05:14:16;;;;;;;6.37;5.77;;;12.80;98.80;;;;;;6208729;28;20948;-57
2024/04/06 05:17:22;;;;;;;5.03;4.60;;;13.00;98.30;;;;;;6210143;28;20443;-57
2024/04/06 05:20:42;;;;;;;5.87;4.80;;;13.20;97.90;;;;;;6208872;28;20818;-57
2024/04/06 05:23:54;;;;;;;6.50;4.80;;;13.50;97.80;;;;;;6207871;28;20753;-57
2024/04/06 05:26:58;;;;;;;5.80;4.20;;;13.70;97.40;;;;;;6208597;28;20456;-57
2024/04/06 05:30:13;;;;;;;6.13;4.17;;;14.00;96.50;;;;;;6208910;28;20582;-57
2024/04/06 05:33:18;;;;;;;6.93;4.67;;;14.20;95.50;;;;;;6208567;28;20465;-57
2024/04/06 05:36:35;;;;;;;5.70;5.10;;;14.50;95.10;;;;;;6208428;28;20451;-57
2024/04/06 05:39:40;;;;;;;4.53;4.10;;;14.70;94.50;;;;;;6208511;28;20796;-56
2024/04/06 05:42:52;;;;;;;4.83;4.50;;;14.90;94.40;;;;;;6208068;28;20483;-57
2024/04/06 05:46:00;;;;;;;5.70;5.20;;;15.20;93.80;;;;;;6208232;28;20448;-57
2024/04/06 05:49:13;;;;;;;6.80;4.50;;;15.40;93.10;;;;;;6207511;28;20506;-57
2024/04/06 05:52:29;;;;;;;5.43;5.03;;;15.70;93.00;;;;;;6207900;28;20970;-57
2024/04/06 05:55:42;;;;;;;5.20;4.67;;;15.90;92.30;;;;;;6206673;28;20873;-58
2024/04/06 05:58:46;;;;;;;7.03;4.93;;;16.20;91.80;;;;;;6214465;28;20467;-57
2024/04/06 06:01:50;;;;;;;4.87;4.40;;;16.30;91.00;;;;;;6231254;28;20843;-58
2024/04/06 06:04:53;;;;;;;6.10;4.63;;;16.40;90.30;;;;;;6229048;28;20451;-57
2024/04/06 06:08:02;;;;;;;5.90;4.93;;;16.70;90.10;;;;;;6183484;28;20465;-57
2024/04/06 06:11:05;;;;;;;4.50;4.10;;;16.90;88.60;;;;;;6183231;28;20503;-57
2024/04/06 06:14:11;;;;;;;5.00;4.53;;;17.30;87.40;;;;;;6179857;28;20465;-58
2024/04/06 06:17:16;;;;;;;8.90;4.53;;;17.60;86.00;;;;;;6183366;28;20464;-57
2024/04/06 06:20:20;;;;;;;5.07;4.00;;;17.90;84.40;;;;;;6183004;28;20264;-57
2024/04/06 06:23:26;;;;;;;4.67;4.27;;;18.20;82.00;;;;;;6182461;28;20238;-58
2024/04/06 06:26:39;;;;;;;9.23;4.70;;;18.40;81.10;;;;;;6182959;28;20635;-57
2024/04/06 06:29:42;;;;;;;7.17;5.47;;;18.80;79.70;;;;;;6198197;28;20225;-57
2024/04/06 06:32:55;;;;;;;4.60;4.20;;;19.20;78.90;;;;;;6207286;28;20566;-57
2024/04/06 06:35:58;;;;;;;6.00;5.30;;;20.60;76.40;;;;;;6206570;28;20236;-57
2024/04/06 06:39:03;;;;;;;5.40;4.90;;;23.20;70.00;;;;;;6183566;28;20206;-58
2024/04/06 06:42:09;;;;;;;6.97;5.30;;;25.40;61.50;;;;;;6182229;28;20229;-57
2024/04/06 06:45:20;;;;;;;6.33;5.70;;;27.00;56.30;;;;;;6184838;28;20241;-58
2024/04/06 06:48:32;;;;;;;8.20;6.50;;;28.50;51.60;;;;;;6181728;28;20208;-57
2024/04/06 06:51:36;;;;;;;7.77;5.93;;;29.90;47.80;;;;;;6187947;28;20255;-58
2024/04/06 06:54:47;;;;;;;7.05;6.35;;;31.20;45.00;;;;;;6203339;28;20658;-59
2024/04/06 06:57:50;;;;;;;6.38;5.18;;;32.40;41.40;;;;;;6197672;28;20217;-59
2024/04/06 07:01:03;;;;;;;6.18;5.68;;;33.50;38.80;;;;;;6190842;28;20215;-58
2024/04/06 07:04:07;;;;;;;6.20;5.63;;;34.30;37.20;;;;;;6181783;28;20770;-58
2024/04/06 07:10:40;;;;;;;5.18;4.78;;;36.20;33.40;;;;;;6181953;28;20228;-58
2024/04/06 07:13:43;;;;;;;6.82;4.80;;;36.70;31.60;;;;;;6196377;28;20225;-58
2024/04/06 07:16:54;;;;;;;5.13;4.68;;;37.30;30.30;;;;;;6203126;28;20244;-58
2024/04/06 07:19:58;;;;;;;5.85;5.15;;;38.00;29.40;;;;;;6203000;28;20240;-58
2024/04/06 07:23:04;;;;;;;5.13;4.53;;;38.80;28.60;;;;;;6196587;28;20258;-58
2024/04/06 07:26:09;;;;;;;6.90;5.63;;;39.50;27.50;;;;;;6198963;28;20217;-58
2024/04/06 07:29:20;;;;;;;4.50;4.05;;;40.20;26.70;;;;;;6193534;28;20200;-58
2024/04/06 07:32:25;;;;;;;7.20;5.75;;;40.90;25.90;;;;;;6192268;28;20279;-58
2024/04/06 07:35:37;;;;;;;3.55;3.15;;;41.30;25.20;;;;;;6199160;28;20227;-59
2024/04/06 07:38:39;;;;;;;3.45;3.15;;;41.90;24.20;;;;;;6195468;28;20265;-58
2024/04/06 07:41:49;;;;;;;6.47;3.15;;;42.30;23.40;;;;;;6205867;28;20227;-59
2024/04/06 07:44:51;;;;;;;3.10;2.80;;;42.80;22.70;;;;;;6205302;28;20216;-58
2024/04/06 07:48:04;;;;;;;3.90;3.00;;;43.50;21.90;;;;;;6205932;28;20614;-58
2024/04/06 07:51:10;;;;;;;3.28;2.53;;;44.10;21.20;;;;;;6212971;28;20212;-58
2024/04/06 07:54:22;;;;;;;4.78;2.50;;;45.00;20.70;;;;;;6230046;28;20226;-58
2024/04/06 07:57:41;;;;;;;3.22;2.60;;;45.40;19.80;;;;;;6181601;28;20210;-59
2024/04/06 08:00:53;;;;;;;2.78;2.50;;;43.90;20.00;;;;;;6193800;28;20804;-58
2024/04/06 08:03:56;;;;;;;3.38;2.30;;;42.60;20.90;;;;;;6187689;28;20236;-58
2024/04/06 08:07:09;;;;;;;2.88;2.63;;;41.90;21.60;;;;;;6200883;28;20208;-58
2024/04/06 08:10:18;;;;;;;3.28;3.00;;;41.60;21.90;;;;;;6203428;28;20208;-58
2024/04/06 08:13:24;;;;;;;2.78;2.53;;;42.90;21.40;;;;;;6201931;28;20702;-58
2024/04/06 08:16:27;;;;;;;5.32;3.70;;;44.30;20.50;;;;;;6204847;28;20248;-58
2024/04/06 08:22:52;;;;;;;6.35;4.25;;;46.60;20.00;;;;;;6233957;28;20240;-58
2024/04/06 08:25:57;;;;;;;3.25;3.05;;;47.60;18.90;;;;;;6234545;28;20646;-57
2024/04/06 08:29:10;;;;;;;3.72;3.28;;;48.40;18.20;;;;;;6234180;28;20206;-59
2024/04/06 08:32:15;;;;;;;4.35;3.95;;;49.20;17.90;;;;;;6234789;28;20538;-58
2024/04/06 08:35:21;;;;;;;4.05;3.58;;;48.80;17.80;;;;;;6234688;28;20218;-58
2024/04/06 08:38:27;;;;;;;4.55;3.42;;;48.50;17.70;;;;;;6234195;28;20566;-58
2024/04/06 08:41:32;;;;;;;4.65;3.40;;;46.60;18.30;;;;;;6233126;28;20230;-58
2024/04/06 08:44:44;;;;;;;3.95;3.65;;;46.70;18.70;;;;;;6234409;28;20208;-58
2024/04/06 08:47:50;;;;;;;5.22;3.60;;;46.00;19.10;;;;;;6223464;28;20220;-59
2024/04/06 08:50:55;;;;;;;4.40;4.00;;;47.00;18.40;;;;;;6226111;28;20201;-58
2024/04/06 08:54:00;;;;;;;5.22;3.65;;;45.80;19.10;;;;;;6229533;28;20313;-58
2024/04/06 08:57:04;;;;;;;4.32;3.53;;;46.00;18.60;;;;;;6234085;28;20209;-58
2024/04/06 09:00:22;;;;;;;5.35;3.80;;;44.90;19.20;;;;;;6233860;28;20196;-59
2024/04/06 09:03:26;;;;;;;5.07;3.88;;;45.20;19.50;;;;;;6233351;28;20243;-58
2024/04/06 09:06:33;;;;;;;6.65;4.20;;;46.60;18.70;;;;;;6233439;28;20220;-58
2024/04/06 09:09:37;;;;;;;4.95;3.33;;;46.80;18.40;;;;;;6234390;28;20204;-58
2024/04/06 09:12:50;;;;;;;3.63;3.10;;;48.20;17.80;;;;;;6232272;28;20232;-58
2024/04/06 09:16:07;;;;;;;3.92;3.35;;;48.10;17.70;;;;;;6232858;28;20213;-58
2024/04/06 09:19:13;;;;;;;6.13;3.03;;;47.30;17.40;;;;;;6233357;28;20207;-58
2024/04/06 09:22:18;;;;;;;3.95;3.30;;;47.30;17.40;;;;;;6211122;28;20714;-59
2024/04/06 09:25:30;;;;;;;3.78;2.83;;;47.70;17.40;;;;;;6208518;28;20213;-58
2024/04/06 09:28:36;;;;;;;5.85;3.30;;;47.60;16.60;;;;;;6208416;28;20205;-59
2024/04/06 09:31:56;;;;;;;3.10;2.90;;;48.80;16.60;;;;;;6207782;28;20341;-58
2024/04/06 09:35:01;;;;;;;3.30;3.00;;;49.60;16.50;;;;;;6209144;28;20639;-58
2024/04/06 09:38:10;;;;;;;6.20;2.50;;;50.70;15.90;;;;;;6208484;28;20651;-58
2024/04/06 09:41:17;;;;;;;3.10;2.80;;;51.50;15.20;;;;;;6206974;28;20204;-58
2024/04/06 09:44:26;;;;;;;2.35;2.15;;;50.80;14.90;;;;;;6216693;28;20230;-59
2024/04/06 09:47:41;;;;;;;3.72;2.83;;;51.30;15.40;;;;;;6232532;28;20232;-58
2024/04/06 09:50:47;;;;;;;2.72;2.53;;;52.40;14.80;;;;;;6216612;28;20217;-58
2024/04/06 09:53:54;;;;;;;2.53;2.28;;;52.70;14.50;;;;;;6182886;28;20678;-58
2024/04/06 09:57:00;;;;;;;3.10;2.80;;;52.50;13.80;;;;;;6183477;28;20543;-59
2024/04/06 10:00:01;;;;;;;2.30;2.10;;;52.60;14.20;;;;;;6184573;28;20213;-58
2024/04/06 10:03:24;;;;;;;2.50;2.30;;;53.30;13.00;;;;;;6184196;28;20244;-58
2024/04/06 10:06:30;;;;;;;2.95;2.33;;;53.80;12.10;;;;;;6184280;28;20227;-59
2024/04/06 10:09:35;;;;;;;2.28;2.08;;;54.40;12.40;;;;;;6183608;28;20205;-58
2024/04/06 10:12:46;;;;;;;3.60;1.60;;;52.60;11.90;;;;;;6182278;28;20599;-58
2024/04/06 10:15:51;;;;;;;2.53;2.20;;;54.10;11.40;;;;;;6183471;28;20617;-58
2024/04/06 10:19:27;;;;;;;1.75;1.65;;;53.20;11.60;;;;;;6183319;28;20203;-58
2024/04/06 10:22:31;;;;;;;2.47;1.75;;;51.80;12.20;;;;;;6182723;28;20241;-58
2024/04/06 10:25:37;;;;;;;1.65;1.55;;;52.30;11.70;;;;;;6182848;28;20205;-59
2024/04/06 10:28:44;;;;;;;2.55;1.58;;;52.90;10.70;;;;;;6183313;28;20608;-58
2024/04/06 10:31:50;;;;;;;3.03;1.88;;;53.10;10.70;;;;;;6183102;28;20234;-58
2024/04/06 10:35:06;;;;;;;1.95;1.75;;;53.30;10.90;;;;;;6182697;28;20209;-58
2024/04/06 10:38:11;;;;;;;2.95;1.50;;;52.70;11.00;;;;;;6185961;28;20289;-58
2024/04/06 10:41:14;;;;;;;2.38;1.52;;;49.70;11.80;;;;;;6182283;28;20209;-58
2024/04/06 10:44:26;;;;;;;1.50;1.40;;;50.60;11.70;;;;;;6182962;28;20224;-58
2024/04/06 10:47:30;;;;;;;1.98;1.52;;;48.70;11.80;;;;;;6210926;28;20568;-57
2024/04/06 10:50:43;;;;;;;3.40;1.35;;;47.90;12.10;;;;;;6207525;28;20201;-59
2024/04/06 10:53:46;;;;;;;2.20;1.92;;;48.10;12.00;;;;;;6207090;28;20335;-59
2024/04/06 10:56:52;;;;;;;1.83;1.35;;;49.80;12.00;;;;;;6200896;28;20201;-58
2024/04/06 10:59:57;;;;;;;3.40;1.38;;;49.10;11.60;;;;;;6205051;28;20217;-58
2024/04/06 11:03:09;;;;;;;1.60;1.50;;;46.50;12.80;;;;;;6182183;28;20243;-58
2024/04/06 11:06:19;;;;;;;4.97;1.55;;;48.10;12.60;;;;;;6182228;28;20218;-58
2024/04/06 11:09:23;;;;;;;1.42;1.13;;;48.00;12.50;;;;;;6181789;28;20221;-58
2024/04/06 11:12:31;;;;;;;2.97;1.60;;;48.90;11.90;;;;;;6181650;28;20238;-57
2024/04/06 11:15:35;;;;;;;2.97;1.77;;;49.90;11.70;;;;;;6182433;28;20211;-58
2024/04/06 11:18:43;;;;;;;3.97;1.67;;;49.20;12.00;;;;;;6182419;28;20234;-58
2024/04/06 11:22:04;;;;;;;2.05;1.85;;;49.50;12.40;;;;;;6181006;28;20241;-58
2024/04/06 11:25:16;;;;;;;1.92;1.73;;;49.90;12.10;;;;;;6181193;28;20212;-58
2024/04/06 11:28:20;;;;;;;2.00;1.38;;;49.60;12.40;;;;;;6181004;28;20559;-59
2024/04/06 11:31:32;;;;;;;1.83;1.70;;;50.10;11.50;;;;;;6181560;28;20254;-58
2024/04/06 11:34:35;;;;;;;1.60;1.50;;;49.20;12.30;;;;;;6185448;28;20514;-58
2024/04/06 11:37:44;;;;;;;1.95;1.67;;;46.80;13.50;;;;;;6205909;28;20201;-57
2024/04/06 11:40:47;;;;;;;1.40;1.30;;;46.60;13.70;;;;;;6205373;28;20228;-58
2024/04/06 11:43:54;;;;;;;2.40;2.20;;;44.90;14.60;;;;;;6197418;28;20328;-59
2024/04/06 11:46:57;;;;;;;2.45;1.98;;;44.20;15.80;;;;;;6181291;28;20203;-58
2024/04/06 11:50:04;;;;;;;2.60;1.80;;;41.90;17.60;;;;;;6176521;28;20205;-59
2024/04/06 11:53:09;;;;;;;2.25;2.00;;;41.40;18.10;;;;;;6180254;28;20570;-58
2024/04/06 11:56:20;;;;;;;2.83;2.20;;;40.30;18.60;;;;;;6197055;28;20259;-58
2024/04/06 11:59:23;;;;;;;4.07;1.70;;;39.40;19.50;;;;;;6181070;28;20205;-58
2024/04/06 12:02:36;;;;;;;2.15;1.90;;;39.10;19.60;;;;;;6180454;28;20237;-58
2024/04/06 12:05:41;;;;;;;1.73;1.63;;;38.60;19.60;;;;;;6180952;28;20688;-58
2024/04/06 12:08:52;;;;;;;1.60;1.50;;;38.20;19.90;;;;;;6180528;28;20201;-59
2024/04/06 12:12:03;;;;;;;3.88;1.60;;;36.80;20.40;;;;;;6163924;28;20225;-58
2024/04/06 12:15:11;;;;;;;2.55;1.90;;;35.90;21.10;;;;;;6179849;28;20201;-59
2024/04/06 12:18:18;;;;;;;3.40;2.10;;;35.40;21.30;;;;;;6179309;28;20213;-58
2024/04/06 12:21:20;;;;;;;1.90;1.65;;;35.50;21.90;;;;;;6180192;28;20738;-58
2024/04/06 12:24:31;;;;;;;2.08;1.88;;;35.00;21.90;;;;;;6180603;28;20228;-58
2024/04/06 12:27:35;;;;;;;2.75;1.80;;;34.70;22.40;;;;;;6176925;28;20656;-58
2024/04/06 12:30:40;;;;;;;2.60;2.15;;;34.50;22.70;;;;;;6183829;28;20273;-58
2024/04/06 12:33:44;;;;;;;1.95;1.85;;;33.90;23.90;;;;;;6196478;28;20311;-59
2024/04/06 12:36:49;;;;;;;2.60;1.85;;;33.70;24.70;;;;;;6180158;28;20209;-58
2024/04/06 12:39:58;;;;;;;2.13;1.95;;;33.00;24.50;;;;;;6189415;28;20290;-58
2024/04/06 12:43:04;;;;;;;2.83;1.90;;;32.90;24.60;;;;;;6180615;28;20229;-59
2024/04/06 12:46:16;;;;;;;3.45;2.05;;;32.80;23.80;;;;;;6180676;28;20496;-59
2024/04/06 12:49:19;;;;;;;4.32;2.10;;;32.40;24.30;;;;;;6180818;28;20202;-58
2024/04/06 12:52:32;;;;;;;3.38;1.95;;;32.30;25.00;;;;;;6175650;28;20224;-57
2024/04/06 12:55:41;;;;;;;2.53;2.05;;;31.90;24.40;;;;;;6179478;28;20271;-58
2024/04/06 12:58:53;;;;;;;3.35;1.95;;;31.60;26.10;;;;;;6180557;28;20610;-59
2024/04/06 13:02:07;;;;;;;2.10;1.63;;;31.50;25.10;;;;;;6181018;28;20225;-58
2024/04/06 13:05:12;;;;;;;3.17;2.20;;;31.40;25.20;;;;;;6183283;28;20225;-58
2024/04/06 13:08:25;;;;;;;2.83;1.75;;;30.90;25.20;;;;;;6185147;28;20205;-59
2024/04/06 13:11:31;;;;;;;1.58;1.45;;;30.70;24.10;;;;;;6184006;28;20205;-58
2024/04/06 13:14:44;;;;;;;2.10;1.80;;;30.60;24.50;;;;;;6183965;28;20220;-57
2024/04/06 13:17:50;;;;;;;1.75;1.35;;;30.60;23.80;;;;;;6184681;28;20219;-58
2024/04/06 13:20:53;;;;;;;2.30;1.50;;;30.50;22.80;;;;;;6184694;28;20233;-59
2024/04/06 13:23:57;;;;;;;3.45;1.85;;;30.50;23.20;;;;;;6184636;28;20243;-59
2024/04/06 13:27:04;;;;;;;3.67;2.13;;;30.20;23.70;;;;;;6185942;28;20672;-58
2024/04/06 13:30:11;;;;;;;3.08;2.70;;;29.80;27.00;;;;;;6184495;28;20219;-58
2024/04/06 13:33:13;;;;;;;3.72;2.33;;;29.50;27.90;;;;;;6183999;28;20220;-58
2024/04/06 13:36:17;;;;;;;3.33;2.38;;;29.20;28.00;;;;;;6188619;28;20219;-58
2024/04/06 13:39:21;;;;;;;4.45;2.42;;;29.10;29.00;;;;;;6183866;28;20220;-58
2024/04/06 13:42:32;;;;;;;3.55;2.35;;;28.90;28.70;;;;;;6183933;28;20221;-58
2024/04/06 13:45:35;;;;;;;2.47;1.90;;;28.80;28.80;;;;;;6183424;28;20201;-58
2024/04/06 13:48:40;;;;;;;2.50;2.30;;;28.50;29.40;;;;;;6167579;28;20495;-57
2024/04/06 13:51:45;;;;;;;5.70;2.27;;;28.50;29.70;;;;;;6183600;28;20282;-58
2024/04/06 13:54:56;;;;;;;3.38;2.00;;;28.60;29.50;;;;;;6176850;28;20565;-58
2024/04/06 13:58:12;;;;;;;2.20;1.80;;;28.60;28.30;;;;;;6183685;28;20202;-57
2024/04/06 14:01:16;;;;;;;3.10;2.23;;;28.40;28.50;;;;;;6183170;28;20793;-59
2024/04/06 14:04:21;;;;;;;3.40;2.20;;;28.30;28.80;;;;;;6183085;28;20374;-59
2024/04/06 14:07:25;;;;;;;2.23;2.03;;;28.20;28.70;;;;;;6183730;28;20249;-57
2024/04/06 14:10:38;;;;;;;4.07;2.40;;;28.00;28.40;;;;;;6183419;28;20213;-58
2024/04/06 14:13:50;;;;;;;2.73;2.23;;;27.90;28.60;;;;;;6182878;28;20304;-57
2024/04/06 14:16:55;;;;;;;2.80;1.77;;;27.70;28.80;;;;;;6182327;28;20213;-58
2024/04/06 14:19:59;;;;;;;3.93;2.20;;;27.70;28.90;;;;;;6182674;28;20204;-58
2024/04/06 14:23:01;;;;;;;1.83;1.70;;;27.60;29.10;;;;;;6185735;28;20251;-57
2024/04/06 14:26:13;;;;;;;3.47;2.50;;;27.50;29.80;;;;;;6207014;28;20250;-58
2024/04/06 14:29:19;;;;;;;2.93;2.43;;;27.40;30.30;;;;;;6207165;28;20230;-58
2024/04/06 14:32:26;;;;;;;3.53;2.30;;;27.40;31.10;;;;;;6209799;28;20236;-58
2024/04/06 14:35:29;;;;;;;3.80;2.80;;;27.20;31.30;;;;;;6207299;28;20211;-58
2024/04/06 14:38:41;;;;;;;2.30;1.90;;;27.20;31.00;;;;;;6206378;28;20502;-58
2024/04/06 14:41:45;;;;;;;2.80;2.40;;;27.00;31.00;;;;;;6223336;28;20679;-57
2024/04/06 14:44:51;;;;;;;2.77;2.37;;;27.10;31.60;;;;;;6203268;28;20221;-59
2024/04/06 14:47:56;;;;;;;2.40;2.20;;;27.00;32.00;;;;;;6184148;28;20209;-57
2024/04/06 14:51:02;;;;;;;2.20;2.00;;;27.00;31.60;;;;;;6190328;28;20216;-58
2024/04/06 14:54:15;;;;;;;2.97;1.90;;;27.00;31.30;;;;;;6181803;28;20233;-58
2024/04/06 14:57:20;;;;;;;2.60;2.13;;;27.00;31.60;;;;;;6183004;28;20205;-58
2024/04/06 15:00:30;;;;;;;3.70;2.67;;;26.90;31.90;;;;;;6166518;28;20501;-58
2024/04/06 15:03:33;;;;;;;5.03;2.70;;;26.90;31.80;;;;;;6181721;28;20236;-58
2024/04/06 15:06:36;;;;;;;2.50;2.30;;;26.90;31.90;;;;;;6181695;28;20209;-59
2024/04/06 15:09:39;;;;;;;4.57;3.97;;;26.90;32.40;;;;;;6181849;28;20297;-59
2024/04/06 15:12:47;;;;;;;2.20;2.00;;;26.80;32.40;;;;;;6180721;28;20245;-58
2024/04/06 15:16:04;;;;;;;3.30;2.70;;;26.80;32.60;;;;;;6181683;28;20205;-58
2024/04/06 15:19:17;;;;;;;2.83;2.53;;;26.90;32.50;;;;;;6181923;28;20228;-58
2024/04/06 15:22:22;;;;;;;2.63;2.43;;;26.80;32.50;;;;;;6197497;28;20245;-59
2024/04/06 15:25:25;;;;;;;2.73;2.10;;;26.70;32.80;;;;;;6197592;28;20225;-58
2024/04/06 15:28:37;;;;;;;2.43;2.07;;;26.70;32.90;;;;;;6181767;28;20265;-58
2024/04/06 15:31:46;;;;;;;3.73;2.00;;;26.70;33.10;;;;;;6174812;28;20221;-58
2024/04/06 15:34:49;;;;;;;4.03;2.40;;;26.70;33.00;;;;;;6181907;28;20197;-58
2024/04/06 15:37:56;;;;;;;2.10;2.00;;;26.70;33.30;;;;;;6180464;28;20211;-57
2024/04/06 15:41:02;;;;;;;2.50;2.30;;;26.80;33.10;;;;;;6181633;28;20219;-57
2024/04/06 15:44:11;;;;;;;2.50;2.17;;;26.80;33.40;;;;;;6180933;28;20539;-57
2024/04/06 15:47:28;;;;;;;5.00;2.60;;;26.80;33.30;;;;;;6181078;28;20205;-58
2024/04/06 15:50:42;;;;;;;2.87;2.17;;;26.90;33.40;;;;;;6181580;28;20205;-58
2024/04/06 15:53:46;;;;;;;2.60;2.40;;;26.90;33.10;;;;;;6181034;28;20228;-58
2024/04/06 15:56:49;;;;;;;3.57;2.70;;;27.00;32.80;;;;;;6180585;28;20215;-58
2024/04/06 15:59:54;;;;;;;2.40;2.20;;;27.20;32.90;;;;;;6180969;28;20757;-58
2024/04/06 16:03:10;;;;;;;3.57;2.70;;;27.10;33.00;;;;;;6180319;28;20260;-57
2024/04/06 16:06:14;;;;;;;2.63;2.33;;;27.10;32.80;;;;;;6196767;28;20287;-58
2024/04/06 16:09:19;;;;;;;3.80;2.53;;;27.00;32.90;;;;;;6180381;28;20217;-59
2024/04/06 16:12:28;;;;;;;3.73;2.23;;;26.90;33.20;;;;;;6180103;28;20235;-58
2024/04/06 16:15:32;;;;;;;3.73;2.10;;;26.90;33.20;;;;;;6182746;28;20223;-58
2024/04/06 16:18:37;;;;;;;2.70;2.50;;;27.00;33.10;;;;;;6212181;28;20432;-58
2024/04/06 16:25:07;;;;;;;3.97;1.93;;;27.00;33.30;;;;;;6241845;28;20228;-58
2024/04/06 16:28:11;;;;;;;4.87;2.43;;;26.90;33.10;;;;;;6229060;28;20258;-59
2024/04/06 16:31:22;;;;;;;3.73;2.90;;;26.90;33.10;;;;;;6229425;28;20203;-58
2024/04/06 16:34:31;;;;;;;3.10;2.43;;;26.80;33.30;;;;;;6229636;28;20207;-57
2024/04/06 16:37:45;;;;;;;2.43;2.23;;;26.60;33.20;;;;;;6229030;28;20635;-58